Time;durP1;ratioP1;P1;durP2;ratioP2;P2;SDS_P1;SDS_P2;PMS_P1;PMS_P2;Temp;Humidity;BMP_temperature;BMP_pressure;BME280_temperature;BME280_humidity;BME280_pressure;Samples;Min_cycle;Max_cycle;Signal;HPM_P1;HPM_P2
2022/09/12 00:01:19;;;;;;;0.55;0.40;;;25.30;49.40;;;;;;5054274;28;20045;-56
2022/09/12 00:03:47;;;;;;;1.95;0.40;;;25.30;49.40;;;;;;5047859;28;20049;-54
2022/09/12 00:06:18;;;;;;;0.90;0.52;;;25.30;49.50;;;;;;5048051;28;20120;-51
2022/09/12 00:08:46;;;;;;;0.65;0.32;;;25.30;49.50;;;;;;5048157;28;20474;-53
2022/09/12 00:11:13;;;;;;;1.23;1.13;;;25.30;49.50;;;;;;5048145;28;20045;-55
2022/09/12 00:13:42;;;;;;;0.93;0.45;;;25.30;49.60;;;;;;5048178;28;20040;-54
2022/09/12 00:16:16;;;;;;;1.30;0.65;;;25.30;49.60;;;;;;5049168;28;20069;-52
2022/09/12 00:18:44;;;;;;;3.92;1.20;;;25.30;49.60;;;;;;5052725;28;20148;-51
2022/09/12 00:21:12;;;;;;;0.40;0.20;;;25.30;49.70;;;;;;5053143;28;20041;-54
2022/09/12 00:23:39;;;;;;;0.90;0.52;;;25.30;49.70;;;;;;5051199;28;20045;-54
2022/09/12 00:26:08;;;;;;;0.93;0.30;;;25.30;49.70;;;;;;5052418;28;20095;-54
2022/09/12 00:28:36;;;;;;;0.47;0.40;;;25.30;49.70;;;;;;5051385;28;20572;-57
2022/09/12 00:31:05;;;;;;;0.40;0.10;;;25.30;49.70;;;;;;5047754;28;20045;-56
2022/09/12 00:33:33;;;;;;;0.20;0.20;;;25.30;49.70;;;;;;5052174;28;20721;-55
2022/09/12 00:36:03;;;;;;;0.82;0.25;;;25.20;49.70;;;;;;5051704;28;20045;-52
2022/09/12 00:38:31;;;;;;;1.13;0.10;;;25.20;49.70;;;;;;5052098;28;20127;-53
2022/09/12 00:40:58;;;;;;;0.77;0.40;;;25.20;49.70;;;;;;5051708;28;20041;-53
2022/09/12 00:43:38;;;;;;;1.65;0.50;;;25.20;49.80;;;;;;5052105;28;20045;-52
2022/09/12 00:46:13;;;;;;;0.75;0.65;;;25.20;49.70;;;;;;5052055;28;20044;-52
2022/09/12 00:48:45;;;;;;;0.60;0.30;;;25.20;49.80;;;;;;5051963;28;20033;-53
2022/09/12 00:51:14;;;;;;;0.80;0.43;;;25.20;49.80;;;;;;5057444;28;20555;-54
2022/09/12 00:53:43;;;;;;;0.82;0.40;;;25.20;49.90;;;;;;5051666;28;20047;-53
2022/09/12 00:56:15;;;;;;;0.95;0.43;;;25.20;49.90;;;;;;5051571;28;20056;-55
2022/09/12 00:58:48;;;;;;;0.20;0.20;;;25.20;50.00;;;;;;5033683;28;20049;-53
2022/09/12 01:01:15;;;;;;;0.30;0.22;;;25.10;49.90;;;;;;5051369;28;20048;-50
2022/09/12 01:03:43;;;;;;;0.47;0.20;;;25.10;49.90;;;;;;5051012;28;20095;-56
2022/09/12 01:06:16;;;;;;;0.40;0.20;;;25.20;50.00;;;;;;5051401;28;20037;-54
2022/09/12 01:08:44;;;;;;;0.73;0.35;;;25.20;50.00;;;;;;5051254;28;20041;-55
2022/09/12 01:11:12;;;;;;;1.38;0.25;;;25.10;50.00;;;;;;5050845;28;20040;-55
2022/09/12 01:13:40;;;;;;;0.85;0.30;;;25.10;50.00;;;;;;5046183;28;20124;-57
2022/09/12 01:16:08;;;;;;;2.67;0.30;;;25.10;50.00;;;;;;5050878;28;20041;-56
2022/09/12 01:18:52;;;;;;;0.60;0.22;;;25.10;50.00;;;;;;5051440;28;20041;-55
2022/09/12 01:21:29;;;;;;;0.40;0.30;;;25.10;50.00;;;;;;5023247;28;20104;-56
2022/09/12 01:24:27;;;;;;;0.20;0.20;;;25.10;50.10;;;;;;5051775;28;20056;-58
2022/09/12 01:27:20;;;;;;;0.30;0.30;;;25.10;50.00;;;;;;5055010;28;20086;-57
2022/09/12 01:30:16;;;;;;;0.52;0.22;;;25.10;50.10;;;;;;5050896;28;20496;-57
2022/09/12 01:32:55;;;;;;;0.73;0.20;;;25.10;50.10;;;;;;5032976;28;20137;-55
2022/09/12 01:35:31;;;;;;;0.63;0.20;;;25.00;50.20;;;;;;5050770;28;20073;-56
2022/09/12 01:38:09;;;;;;;0.30;0.30;;;25.00;50.20;;;;;;5050938;28;20102;-57
2022/09/12 01:40:44;;;;;;;0.35;0.35;;;25.00;50.20;;;;;;5053165;28;20072;-57
2022/09/12 01:43:18;;;;;;;0.40;0.20;;;25.00;50.30;;;;;;5027251;28;20505;-57
2022/09/12 01:45:55;;;;;;;0.30;0.20;;;25.00;50.30;;;;;;5050519;28;20068;-55
2022/09/12 01:48:26;;;;;;;1.85;0.30;;;25.00;50.30;;;;;;5051068;28;20057;-55
2022/09/12 01:51:01;;;;;;;0.20;0.20;;;25.00;50.30;;;;;;5051738;28;20044;-57
2022/09/12 01:53:33;;;;;;;0.37;0.37;;;25.00;50.30;;;;;;5052753;28;20576;-53
2022/09/12 01:56:06;;;;;;;0.60;0.32;;;25.00;50.30;;;;;;5050685;28;20041;-56
2022/09/12 01:58:40;;;;;;;0.30;0.20;;;25.00;50.30;;;;;;5050746;28;20650;-56
2022/09/12 02:01:14;;;;;;;1.25;0.20;;;25.00;50.40;;;;;;5055500;28;20064;-54
2022/09/12 02:03:44;;;;;;;0.95;0.30;;;25.00;50.40;;;;;;5048953;28;20136;-55
2022/09/12 02:06:18;;;;;;;1.77;0.20;;;25.00;50.40;;;;;;5050168;28;20600;-54
2022/09/12 02:08:49;;;;;;;0.20;0.13;;;25.00;50.40;;;;;;5050039;28;20041;-54
2022/09/12 02:11:16;;;;;;;2.47;0.28;;;24.90;50.30;;;;;;5050376;28;20118;-52
2022/09/12 02:13:46;;;;;;;0.20;0.20;;;24.90;50.30;;;;;;5050240;28;20049;-52
2022/09/12 02:16:19;;;;;;;0.25;0.20;;;25.00;50.40;;;;;;5048101;28;20061;-56
2022/09/12 02:18:52;;;;;;;0.63;0.10;;;24.90;50.40;;;;;;5049590;28;20075;-54
2022/09/12 02:21:21;;;;;;;0.30;0.30;;;24.90;50.40;;;;;;5050310;28;20045;-55
2022/09/12 02:23:53;;;;;;;0.25;0.20;;;24.90;50.40;;;;;;5056266;28;20051;-55
2022/09/12 02:26:24;;;;;;;0.40;0.20;;;24.90;50.40;;;;;;5053264;28;20041;-57
2022/09/12 02:28:52;;;;;;;2.10;0.20;;;24.90;50.50;;;;;;5036261;28;20077;-56
2022/09/12 02:31:26;;;;;;;0.20;0.20;;;24.90;50.40;;;;;;5050046;28;20128;-55
2022/09/12 02:34:07;;;;;;;0.20;0.20;;;24.90;50.50;;;;;;5050076;28;20052;-53
2022/09/12 02:36:41;;;;;;;0.22;0.22;;;24.90;50.50;;;;;;5044043;28;20044;-54
2022/09/12 02:39:09;;;;;;;1.50;0.37;;;24.90;50.50;;;;;;5049846;28;20052;-51
2022/09/12 02:41:36;;;;;;;0.55;0.20;;;24.90;50.50;;;;;;5049933;28;20041;-51
2022/09/12 02:44:04;;;;;;;0.50;0.20;;;24.90;50.50;;;;;;5050589;28;20660;-56
2022/09/12 02:46:40;;;;;;;0.40;0.40;;;24.90;50.50;;;;;;5048512;28;20453;-55
2022/09/12 02:49:07;;;;;;;0.52;0.20;;;24.90;50.50;;;;;;5046143;28;20041;-57
2022/09/12 02:51:34;;;;;;;0.30;0.30;;;24.90;50.50;;;;;;5049599;28;20037;-56
2022/09/12 02:54:02;;;;;;;0.57;0.25;;;24.80;50.50;;;;;;5049462;28;20098;-56
2022/09/12 02:56:30;;;;;;;0.68;0.68;;;24.80;50.50;;;;;;5056274;28;20052;-54
2022/09/12 02:59:02;;;;;;;1.05;0.30;;;24.80;50.50;;;;;;5053781;28;20071;-56
2022/09/12 03:01:46;;;;;;;0.43;0.43;;;24.80;50.50;;;;;;5052989;28;20107;-56
2022/09/12 03:04:33;;;;;;;0.85;0.20;;;24.90;50.60;;;;;;5055790;28;20060;-57
2022/09/12 03:07:12;;;;;;;0.30;0.30;;;24.80;50.50;;;;;;5025714;28;20369;-53
2022/09/12 03:09:46;;;;;;;0.30;0.20;;;24.80;50.60;;;;;;5049109;28;20069;-56
2022/09/12 03:12:31;;;;;;;0.80;0.20;;;24.80;50.60;;;;;;5049131;28;20041;-54
2022/09/12 03:15:19;;;;;;;0.10;0.10;;;24.80;50.60;;;;;;5051860;28;20044;-57
2022/09/12 03:18:04;;;;;;;0.20;0.10;;;24.80;50.60;;;;;;5048644;28;20049;-57
2022/09/12 03:20:44;;;;;;;1.75;0.40;;;24.80;50.70;;;;;;5050934;28;20091;-56
2022/09/12 03:23:22;;;;;;;0.55;0.20;;;24.80;50.70;;;;;;5051629;28;20037;-57
2022/09/12 03:25:54;;;;;;;0.20;0.20;;;24.70;50.60;;;;;;5031075;28;20045;-55
2022/09/12 03:28:22;;;;;;;0.55;0.40;;;24.80;50.70;;;;;;5048432;28;20666;-56
2022/09/12 03:30:53;;;;;;;1.85;0.38;;;24.80;50.70;;;;;;5030994;28;20394;-57
2022/09/12 03:33:23;;;;;;;0.30;0.20;;;24.70;50.70;;;;;;5048818;28;20049;-52
2022/09/12 03:35:51;;;;;;;0.70;0.30;;;24.80;50.70;;;;;;5048721;28;20126;-55
2022/09/12 03:38:19;;;;;;;0.52;0.20;;;24.70;50.70;;;;;;5048902;28;20041;-57
2022/09/12 03:40:46;;;;;;;0.73;0.20;;;24.70;50.70;;;;;;5048589;28;20044;-55
2022/09/12 03:43:13;;;;;;;0.95;0.47;;;24.70;50.70;;;;;;5051034;28;20061;-55
2022/09/12 03:45:40;;;;;;;0.30;0.30;;;24.70;50.70;;;;;;5053987;28;20041;-52
2022/09/12 03:48:08;;;;;;;1.65;0.20;;;24.70;50.70;;;;;;5048564;28;20067;-54
2022/09/12 03:50:36;;;;;;;0.28;0.20;;;24.70;50.70;;;;;;5048474;28;20055;-51
2022/09/12 03:53:04;;;;;;;1.55;0.30;;;24.70;50.80;;;;;;5031060;28;20676;-51
2022/09/12 03:55:31;;;;;;;0.10;0.10;;;24.70;50.70;;;;;;5049536;28;20084;-55
2022/09/12 03:57:58;;;;;;;0.68;0.10;;;24.70;50.70;;;;;;5048599;28;20057;-53
2022/09/12 04:00:25;;;;;;;1.27;0.40;;;24.70;50.80;;;;;;5030521;28;20064;-52
2022/09/12 04:02:56;;;;;;;0.30;0.20;;;24.70;50.80;;;;;;5048737;28;20029;-52
2022/09/12 04:05:24;;;;;;;0.20;0.20;;;24.70;50.80;;;;;;5048244;28;20641;-54
2022/09/12 04:07:53;;;;;;;0.22;0.13;;;24.70;50.80;;;;;;5047495;28;20037;-54
2022/09/12 04:10:20;;;;;;;1.35;0.40;;;24.60;50.80;;;;;;5050284;28;20448;-58
2022/09/12 04:12:47;;;;;;;1.00;0.40;;;24.60;50.80;;;;;;5030344;28;20044;-59
2022/09/12 04:15:14;;;;;;;0.22;0.22;;;24.70;50.90;;;;;;5048213;28;20040;-58
2022/09/12 04:17:41;;;;;;;0.50;0.10;;;24.60;50.80;;;;;;5023789;28;20505;-57
2022/09/12 04:20:09;;;;;;;0.20;0.20;;;24.60;50.80;;;;;;5048297;28;20045;-50
2022/09/12 04:22:36;;;;;;;0.28;0.20;;;24.60;50.80;;;;;;5048203;28;20045;-52
2022/09/12 04:25:05;;;;;;;1.35;0.20;;;24.60;50.90;;;;;;5044659;28;20148;-54
2022/09/12 04:27:32;;;;;;;0.93;0.35;;;24.70;51.50;;;;;;5055958;28;20063;-51
2022/09/12 04:30:01;;;;;;;1.58;0.32;;;24.60;50.80;;;;;;5047921;28;20819;-51
2022/09/12 04:32:30;;;;;;;1.33;0.95;;;24.60;50.90;;;;;;5048266;28;20041;-53
2022/09/12 04:34:57;;;;;;;0.25;0.25;;;24.60;50.90;;;;;;5052838;28;20036;-52
2022/09/12 04:37:24;;;;;;;2.22;0.30;;;24.60;50.90;;;;;;5053021;28;20408;-53
2022/09/12 04:39:56;;;;;;;2.50;0.30;;;24.60;50.90;;;;;;5047751;28;20041;-56
2022/09/12 04:42:25;;;;;;;0.30;0.20;;;24.60;50.90;;;;;;5048002;28;20069;-55
2022/09/12 04:44:52;;;;;;;0.47;0.20;;;24.60;50.90;;;;;;5047966;28;20045;-51
2022/09/12 04:47:19;;;;;;;0.30;0.30;;;24.60;50.90;;;;;;5048243;28;20072;-52
2022/09/12 04:49:46;;;;;;;0.40;0.30;;;24.60;50.90;;;;;;5047877;28;20045;-55
2022/09/12 04:52:13;;;;;;;0.82;0.47;;;24.60;51.00;;;;;;5047863;28;20557;-54
2022/09/12 04:54:40;;;;;;;2.28;0.28;;;24.60;50.90;;;;;;5050317;28;20032;-56
2022/09/12 04:57:07;;;;;;;0.52;0.22;;;24.60;50.90;;;;;;5047431;28;20127;-56
2022/09/12 04:59:35;;;;;;;0.43;0.25;;;24.60;51.50;;;;;;5049751;28;20036;-55
2022/09/12 05:02:02;;;;;;;0.50;0.30;;;24.60;51.00;;;;;;5047761;28;20466;-56
2022/09/12 05:04:30;;;;;;;4.13;0.50;;;24.50;50.90;;;;;;5051702;28;20045;-57
2022/09/12 05:06:57;;;;;;;0.38;0.10;;;24.60;51.00;;;;;;5047461;28;20051;-54
2022/09/12 05:09:24;;;;;;;0.80;0.20;;;24.60;51.00;;;;;;5047254;28;20053;-56
2022/09/12 05:11:51;;;;;;;1.17;0.20;;;24.50;51.00;;;;;;5047184;28;20068;-55
2022/09/12 05:14:18;;;;;;;0.20;0.20;;;24.50;51.00;;;;;;5047456;28;20041;-57
2022/09/12 05:16:47;;;;;;;0.20;0.20;;;24.50;51.00;;;;;;5047500;28;20080;-52
2022/09/12 05:19:14;;;;;;;0.50;0.13;;;24.50;51.00;;;;;;5049611;28;20067;-57
2022/09/12 05:21:41;;;;;;;0.30;0.30;;;24.50;51.60;;;;;;5050954;28;20125;-55
2022/09/12 05:24:10;;;;;;;0.60;0.30;;;24.50;51.00;;;;;;5051081;28;20508;-56
2022/09/12 05:26:37;;;;;;;0.30;0.10;;;24.50;51.00;;;;;;5056193;28;20049;-50
2022/09/12 05:29:05;;;;;;;0.10;0.10;;;24.50;51.10;;;;;;5051261;28;20416;-55
2022/09/12 05:31:33;;;;;;;0.35;0.20;;;24.50;51.10;;;;;;5051201;28;20509;-51
2022/09/12 05:34:03;;;;;;;0.80;0.15;;;24.50;51.10;;;;;;5051191;28;20596;-54
2022/09/12 05:36:31;;;;;;;0.80;0.10;;;24.50;51.10;;;;;;5051947;28;20045;-53
2022/09/12 05:39:00;;;;;;;0.98;0.20;;;24.50;51.10;;;;;;5057360;28;20044;-57
2022/09/12 05:41:29;;;;;;;1.38;0.50;;;24.50;51.10;;;;;;5051019;28;20128;-54
2022/09/12 05:43:58;;;;;;;0.60;0.20;;;24.50;51.10;;;;;;5050934;28;20114;-56
2022/09/12 05:46:27;;;;;;;0.63;0.20;;;24.50;51.10;;;;;;5053030;28;20042;-56
2022/09/12 05:48:55;;;;;;;1.00;0.20;;;24.50;51.10;;;;;;5050835;28;20041;-54
2022/09/12 05:51:25;;;;;;;0.32;0.25;;;24.50;51.10;;;;;;5055040;28;20048;-54
2022/09/12 05:53:54;;;;;;;0.38;0.20;;;24.50;51.10;;;;;;5050281;28;20096;-57
2022/09/12 05:56:23;;;;;;;0.80;0.30;;;24.50;51.10;;;;;;5052091;28;20148;-56
2022/09/12 05:58:54;;;;;;;1.85;0.20;;;24.50;51.10;;;;;;5052995;28;20811;-56
2022/09/12 06:01:21;;;;;;;0.30;0.30;;;24.50;51.10;;;;;;5051203;28;20456;-55
2022/09/12 06:03:49;;;;;;;0.70;0.40;;;24.50;51.10;;;;;;5054112;28;20132;-54
2022/09/12 06:06:19;;;;;;;0.60;0.40;;;24.50;51.10;;;;;;5050203;28;20041;-56
2022/09/12 06:08:49;;;;;;;1.45;0.20;;;24.50;51.10;;;;;;5050643;28;20037;-53
2022/09/12 06:11:20;;;;;;;0.40;0.30;;;24.50;51.10;;;;;;5055592;28;20048;-54
2022/09/12 06:13:47;;;;;;;0.95;0.30;;;24.50;51.10;;;;;;5050159;28;20049;-55
2022/09/12 06:16:17;;;;;;;0.30;0.20;;;24.50;51.00;;;;;;5052953;28;20126;-53
2022/09/12 06:18:48;;;;;;;1.95;0.57;;;24.50;51.10;;;;;;5050224;28;20048;-55
2022/09/12 06:21:15;;;;;;;2.55;0.22;;;24.50;51.00;;;;;;5049920;28;20095;-55
2022/09/12 06:23:43;;;;;;;0.50;0.38;;;24.50;51.00;;;;;;5054522;28;20040;-58
2022/09/12 06:26:12;;;;;;;1.08;0.30;;;24.50;51.00;;;;;;5055560;28;20474;-57
2022/09/12 06:28:40;;;;;;;0.63;0.20;;;24.50;51.00;;;;;;5055477;28;20045;-54
2022/09/12 06:31:09;;;;;;;1.13;0.68;;;24.50;51.00;;;;;;5054972;28;20469;-54
2022/09/12 06:33:38;;;;;;;0.70;0.40;;;24.50;50.90;;;;;;5049762;28;20106;-54
2022/09/12 06:36:07;;;;;;;1.95;0.32;;;24.50;50.90;;;;;;5053124;28;20525;-57
2022/09/12 06:38:35;;;;;;;0.40;0.20;;;24.50;50.90;;;;;;5051798;28;20055;-56
2022/09/12 06:41:04;;;;;;;0.60;0.60;;;24.50;50.90;;;;;;5049802;28;20048;-53
2022/09/12 06:43:33;;;;;;;2.63;0.70;;;24.50;50.90;;;;;;5049803;28;20406;-56
2022/09/12 06:46:00;;;;;;;1.23;0.30;;;24.50;50.90;;;;;;5052278;28;20497;-55
2022/09/12 06:48:28;;;;;;;2.22;0.20;;;24.50;50.80;;;;;;5049879;28;20132;-58
2022/09/12 06:50:56;;;;;;;1.08;0.40;;;24.50;50.80;;;;;;5049967;28;20072;-51
2022/09/12 06:53:24;;;;;;;1.48;0.20;;;24.50;50.90;;;;;;5049713;28;20060;-54
2022/09/12 06:55:56;;;;;;;0.52;0.30;;;24.50;50.80;;;;;;5026030;28;20040;-56
2022/09/12 06:58:24;;;;;;;0.57;0.25;;;24.50;50.90;;;;;;5054297;28;20075;-52
2022/09/12 07:00:53;;;;;;;0.50;0.40;;;24.50;50.80;;;;;;5055481;28;20036;-58
2022/09/12 07:03:20;;;;;;;3.00;0.40;;;24.50;50.80;;;;;;5049502;28;20132;-53
2022/09/12 07:05:47;;;;;;;1.42;0.65;;;24.60;50.80;;;;;;5054739;28;20139;-55
2022/09/12 07:08:14;;;;;;;0.60;0.50;;;24.60;50.80;;;;;;5049391;28;20057;-53
2022/09/12 07:10:42;;;;;;;1.67;0.65;;;24.60;50.70;;;;;;5049359;28;20116;-57
2022/09/12 07:13:09;;;;;;;1.10;0.50;;;24.60;50.70;;;;;;5049535;28;20036;-55
2022/09/12 07:15:36;;;;;;;2.05;0.60;;;24.60;50.70;;;;;;5052082;28;20115;-53
2022/09/12 07:18:04;;;;;;;1.55;0.70;;;24.60;50.60;;;;;;5049003;28;20048;-56
2022/09/12 07:20:32;;;;;;;1.42;1.02;;;24.60;50.60;;;;;;5048781;28;20049;-54
2022/09/12 07:22:59;;;;;;;0.80;0.70;;;24.60;50.50;;;;;;5022259;28;20078;-54
2022/09/12 07:25:27;;;;;;;0.50;0.50;;;24.70;50.50;;;;;;5035242;28;20064;-57
2022/09/12 07:27:54;;;;;;;2.50;0.43;;;24.70;50.50;;;;;;5049043;28;20767;-56
2022/09/12 07:30:22;;;;;;;1.48;0.50;;;24.70;50.40;;;;;;5050809;28;20421;-55
2022/09/12 07:32:53;;;;;;;0.63;0.38;;;24.70;50.40;;;;;;5050368;28;20409;-57
2022/09/12 07:35:21;;;;;;;1.00;0.75;;;24.70;50.30;;;;;;5048465;28;20049;-54
2022/09/12 07:37:48;;;;;;;1.27;0.75;;;24.70;50.30;;;;;;5030779;28;20041;-52
2022/09/12 07:40:15;;;;;;;5.25;0.57;;;24.70;50.30;;;;;;5048671;28;20543;-55
2022/09/12 07:42:42;;;;;;;2.00;0.60;;;24.80;50.30;;;;;;5052815;28;20116;-55
2022/09/12 07:45:11;;;;;;;2.78;0.70;;;24.80;50.30;;;;;;5048767;28;20501;-56
2022/09/12 07:47:39;;;;;;;2.38;0.38;;;24.80;50.20;;;;;;5048056;28;20362;-54
2022/09/12 07:50:07;;;;;;;1.15;0.28;;;24.80;50.20;;;;;;5049200;28;20040;-52
2022/09/12 07:52:35;;;;;;;0.90;0.55;;;24.80;50.10;;;;;;5048629;28;20120;-53
2022/09/12 07:55:02;;;;;;;0.65;0.65;;;24.80;50.10;;;;;;5049477;28;20068;-56
2022/09/12 07:57:30;;;;;;;1.02;0.57;;;24.90;50.10;;;;;;5053314;28;20055;-56
2022/09/12 07:59:57;;;;;;;1.35;0.40;;;24.90;50.00;;;;;;5048295;28;20057;-55
2022/09/12 08:02:24;;;;;;;1.40;0.65;;;24.90;50.00;;;;;;5048153;28;20041;-56
2022/09/12 08:04:51;;;;;;;1.27;0.63;;;24.90;49.90;;;;;;5048239;28;20568;-57
2022/09/12 08:07:19;;;;;;;0.90;0.50;;;24.90;49.90;;;;;;5030557;28;20398;-55
2022/09/12 08:09:47;;;;;;;0.85;0.40;;;24.90;49.80;;;;;;5048759;28;20049;-57
2022/09/12 08:12:15;;;;;;;3.42;0.60;;;25.00;49.80;;;;;;5050843;28;20036;-57
2022/09/12 08:14:43;;;;;;;1.88;0.57;;;25.00;49.70;;;;;;5048408;28;20190;-57
2022/09/12 08:17:10;;;;;;;1.77;0.25;;;25.00;49.70;;;;;;5050034;28;20051;-59
2022/09/12 08:19:38;;;;;;;0.77;0.30;;;25.00;49.60;;;;;;5048237;28;20115;-57
2022/09/12 08:22:05;;;;;;;2.72;0.30;;;25.00;49.60;;;;;;5050033;28;20040;-57
2022/09/12 08:24:32;;;;;;;7.93;0.55;;;25.10;49.50;;;;;;5049485;28;20047;-57
2022/09/12 08:27:00;;;;;;;2.08;0.30;;;25.10;49.50;;;;;;5048242;28;20137;-55
2022/09/12 08:29:27;;;;;;;2.08;0.40;;;25.10;49.50;;;;;;5048672;28;20080;-56
2022/09/12 08:31:54;;;;;;;2.75;0.30;;;25.10;49.50;;;;;;5049370;28;20048;-57
2022/09/12 08:34:23;;;;;;;2.88;0.65;;;25.10;49.40;;;;;;5048078;28;20041;-57
2022/09/12 08:36:53;;;;;;;0.85;0.30;;;25.10;50.00;;;;;;5047670;28;20115;-57
2022/09/12 08:39:20;;;;;;;1.45;0.30;;;25.20;49.50;;;;;;5048415;28;20461;-58
2022/09/12 08:41:49;;;;;;;0.60;0.30;;;25.20;49.40;;;;;;5054269;28;20465;-57
2022/09/12 08:44:31;;;;;;;1.25;0.50;;;25.20;49.30;;;;;;5053287;28;20125;-56
2022/09/12 08:47:20;;;;;;;0.75;0.20;;;25.20;49.20;;;;;;5052057;28;20047;-54
2022/09/12 08:49:55;;;;;;;1.95;0.30;;;25.30;49.30;;;;;;5048018;28;20099;-54
2022/09/12 08:52:29;;;;;;;1.13;0.93;;;25.30;49.30;;;;;;5047952;28;20513;-56
2022/09/12 08:54:57;;;;;;;3.63;0.50;;;25.30;49.30;;;;;;5051972;28;20579;-56
2022/09/12 08:57:24;;;;;;;0.85;0.40;;;25.30;49.80;;;;;;5054690;28;20281;-54
2022/09/12 08:59:53;;;;;;;2.35;0.75;;;25.30;49.10;;;;;;5051919;28;20059;-57
2022/09/12 09:02:40;;;;;;;3.15;0.73;;;25.30;49.10;;;;;;5054068;28;20037;-56
2022/09/12 09:05:19;;;;;;;4.15;0.30;;;25.40;49.00;;;;;;5054130;28;20068;-57
2022/09/12 09:08:05;;;;;;;2.03;0.30;;;25.40;49.00;;;;;;5046104;28;20045;-52
2022/09/12 09:10:39;;;;;;;1.02;0.40;;;25.40;48.90;;;;;;5039905;28;20077;-56
2022/09/12 09:14:46;;;;;;;1.05;0.28;;;25.40;49.00;;;;;;5051144;28;20721;-55
2022/09/12 09:16:11;;;;;;;0.55;0.13;;;25.50;49.00;;;;;;5050831;28;20508;-58
2022/09/12 09:18:41;;;;;;;0.75;0.30;;;25.50;48.90;;;;;;5051461;28;20151;-54
2022/09/12 09:21:18;;;;;;;0.90;0.28;;;25.50;48.90;;;;;;5049942;28;20053;-53
2022/09/12 09:23:49;;;;;;;2.28;0.20;;;25.50;48.80;;;;;;5049739;28;20417;-57
2022/09/12 09:26:25;;;;;;;1.00;0.15;;;25.50;48.80;;;;;;5056054;28;20102;-53
2022/09/12 09:28:56;;;;;;;1.75;0.45;;;25.60;48.80;;;;;;5049676;28;20040;-54
2022/09/12 09:31:28;;;;;;;0.68;0.55;;;25.60;48.70;;;;;;5035964;28;20421;-52
2022/09/12 09:33:57;;;;;;;1.23;0.45;;;25.60;48.70;;;;;;5037212;28;20118;-55
2022/09/12 09:36:36;;;;;;;1.80;0.60;;;25.70;48.70;;;;;;5050224;28;20094;-53
2022/09/12 09:39:06;;;;;;;2.30;0.40;;;25.70;48.60;;;;;;5046375;28;20049;-55
2022/09/12 09:41:42;;;;;;;0.50;0.20;;;25.70;48.60;;;;;;5055615;28;20091;-56
2022/09/12 09:44:10;;;;;;;0.45;0.20;;;25.70;48.60;;;;;;5050730;28;20067;-55
2022/09/12 09:46:38;;;;;;;2.47;0.43;;;25.70;48.60;;;;;;5054924;28;20041;-57
2022/09/12 09:49:06;;;;;;;0.40;0.20;;;25.80;48.50;;;;;;5052944;28;20788;-54
2022/09/12 09:51:36;;;;;;;0.57;0.20;;;25.80;48.50;;;;;;5055800;28;20040;-57
2022/09/12 09:54:11;;;;;;;3.30;0.30;;;25.80;48.40;;;;;;5054547;28;20088;-56
2022/09/12 09:56:41;;;;;;;5.22;0.57;;;25.80;48.30;;;;;;5050904;28;20056;-56
2022/09/12 09:59:12;;;;;;;0.60;0.30;;;25.80;48.30;;;;;;5050435;28;20041;-55
2022/09/12 10:01:46;;;;;;;1.38;0.20;;;25.90;48.30;;;;;;5052331;28;20048;-56
2022/09/12 10:04:22;;;;;;;0.68;0.22;;;25.90;48.20;;;;;;5050415;28;20620;-57
2022/09/12 10:06:53;;;;;;;1.52;0.20;;;25.90;48.10;;;;;;5047570;28;20044;-57
2022/09/12 10:09:25;;;;;;;0.40;0.20;;;25.90;48.10;;;;;;5047054;28;20416;-55
2022/09/12 10:11:54;;;;;;;1.33;0.10;;;25.90;48.00;;;;;;5050407;28;20041;-56
2022/09/12 10:14:29;;;;;;;1.73;0.13;;;25.90;48.00;;;;;;5051390;28;20045;-53
2022/09/12 10:16:58;;;;;;;0.68;0.10;;;26.00;48.00;;;;;;5053701;28;20402;-53
2022/09/12 10:19:35;;;;;;;1.23;0.30;;;26.00;48.00;;;;;;5056426;28;20044;-57
2022/09/12 10:22:04;;;;;;;0.90;0.32;;;26.00;47.90;;;;;;5051420;28;20052;-55
2022/09/12 10:24:35;;;;;;;0.30;0.20;;;26.00;47.90;;;;;;5051022;28;20029;-57
2022/09/12 10:27:14;;;;;;;1.35;0.20;;;26.10;47.90;;;;;;5050505;28;20148;-57
2022/09/12 10:29:46;;;;;;;0.88;0.20;;;26.10;47.80;;;;;;5055138;28;20068;-54
2022/09/12 10:32:25;;;;;;;1.73;0.20;;;26.10;47.80;;;;;;5053800;28;20040;-55
2022/09/12 10:34:56;;;;;;;0.73;0.10;;;26.10;47.80;;;;;;5044463;28;20524;-56
2022/09/12 10:37:28;;;;;;;1.70;0.20;;;26.20;47.80;;;;;;5049300;28;20098;-55
2022/09/12 10:39:58;;;;;;;0.90;0.30;;;26.20;47.80;;;;;;5053701;28;20044;-54
2022/09/12 10:42:47;;;;;;;0.30;0.22;;;26.20;47.80;;;;;;5053504;28;20041;-54
2022/09/12 10:45:23;;;;;;;1.75;0.25;;;26.30;47.70;;;;;;5049625;28;20877;-54
2022/09/12 10:47:53;;;;;;;1.20;0.40;;;26.30;47.70;;;;;;5049809;28;20048;-54
2022/09/12 10:50:22;;;;;;;2.35;0.30;;;26.30;47.70;;;;;;5043199;28;20052;-54
2022/09/12 10:52:49;;;;;;;0.65;0.10;;;26.30;47.60;;;;;;5043408;28;20033;-56
2022/09/12 10:55:17;;;;;;;0.80;0.10;;;26.30;47.60;;;;;;5043427;28;20047;-55
2022/09/12 10:57:59;;;;;;;0.45;0.20;;;26.40;47.60;;;;;;5042803;28;20045;-52
2022/09/12 11:00:29;;;;;;;0.60;0.10;;;26.40;47.50;;;;;;5049936;28;20072;-56
2022/09/12 11:03:09;;;;;;;1.08;0.10;;;26.40;47.50;;;;;;5045357;28;20090;-56
2022/09/12 11:05:50;;;;;;;0.50;0.10;;;26.40;47.40;;;;;;5049586;28;20067;-54
2022/09/12 11:08:34;;;;;;;0.10;0.10;;;26.40;47.30;;;;;;5049346;28;20049;-54
2022/09/12 11:11:12;;;;;;;0.10;0.10;;;26.50;47.40;;;;;;5049328;28;20068;-53
2022/09/12 11:13:58;;;;;;;0.22;0.10;;;26.50;47.30;;;;;;5049356;28;20497;-58
2022/09/12 11:16:31;;;;;;;0.17;0.17;;;26.50;47.20;;;;;;5059068;28;20044;-54
2022/09/12 11:19:14;;;;;;;0.20;0.20;;;26.50;47.20;;;;;;5048830;28;20076;-56
2022/09/12 11:21:57;;;;;;;6.07;0.25;;;26.60;47.20;;;;;;5043563;28;20045;-55
2022/09/12 11:24:39;;;;;;;3.15;0.20;;;26.60;47.20;;;;;;5055151;28;20055;-56
2022/09/12 11:27:25;;;;;;;0.40;0.40;;;26.60;47.10;;;;;;5052634;28;20513;-55
2022/09/12 11:29:54;;;;;;;;;;;26.60;47.10;;;;;;5048292;28;20049;-55
2022/09/12 11:32:58;;;;;;;0.30;0.10;;;26.60;47.10;;;;;;5054900;28;19924;-51
2022/09/12 11:35:29;;;;;;;0.10;0.10;;;26.60;47.10;;;;;;5048397;28;20045;-53
2022/09/12 11:38:22;;;;;;;0.17;0.00;;;26.70;47.20;;;;;;5049003;28;20094;-55
2022/09/12 11:40:54;;;;;;;0.10;0.10;;;26.70;47.00;;;;;;5050093;28;20048;-55
2022/09/12 11:43:34;;;;;;;0.10;0.00;;;26.70;47.00;;;;;;5053925;28;20043;-54
2022/09/12 11:46:09;;;;;;;0.08;0.08;;;26.80;46.90;;;;;;5050312;28;20041;-56
2022/09/12 11:48:44;;;;;;;0.10;0.10;;;26.80;46.90;;;;;;5049005;28;20132;-54
2022/09/12 11:51:18;;;;;;;3.42;0.00;;;26.80;46.90;;;;;;5049388;28;20786;-56
2022/09/12 11:53:55;;;;;;;0.20;0.10;;;26.80;46.80;;;;;;5051816;28;20049;-53
2022/09/12 11:56:22;;;;;;;0.10;0.10;;;26.90;46.80;;;;;;5050364;28;20052;-57
2022/09/12 11:59:00;;;;;;;0.15;0.00;;;26.90;46.70;;;;;;5048883;28;20037;-57
2022/09/12 12:01:34;;;;;;;0.10;0.03;;;27.00;46.70;;;;;;5049937;28;20091;-53
2022/09/12 12:04:07;;;;;;;0.10;0.00;;;27.00;46.60;;;;;;5048493;28;20045;-53
2022/09/12 12:06:46;;;;;;;0.85;0.10;;;27.00;46.50;;;;;;5048100;28;20132;-56
2022/09/12 12:09:14;;;;;;;0.10;0.10;;;27.10;46.50;;;;;;5041636;28;20043;-55
2022/09/12 12:11:47;;;;;;;0.57;0.00;;;27.10;46.50;;;;;;5041948;28;20040;-56
2022/09/12 12:14:17;;;;;;;0.30;0.00;;;27.20;46.40;;;;;;5048370;28;20091;-51
2022/09/12 12:16:44;;;;;;;0.47;0.03;;;27.10;46.30;;;;;;5048216;28;20091;-54
2022/09/12 12:19:33;;;;;;;0.10;0.10;;;27.20;46.40;;;;;;5036198;28;20056;-55
2022/09/12 12:22:17;;;;;;;1.05;0.10;;;27.20;46.20;;;;;;5052135;28;20140;-56
2022/09/12 12:25:09;;;;;;;0.10;0.00;;;27.30;46.30;;;;;;5047721;28;20037;-53
2022/09/12 12:27:52;;;;;;;0.00;0.00;;;27.30;46.30;;;;;;5031079;28;20114;-56
2022/09/12 12:31:01;;;;;;;1.45;0.10;;;27.30;46.80;;;;;;5047805;28;20425;-55
2022/09/12 12:34:02;;;;;;;0.85;0.00;;;27.40;46.20;;;;;;5045061;28;20156;-54
2022/09/12 12:36:43;;;;;;;0.90;0.10;;;27.40;46.10;;;;;;4966653;28;20471;-55
2022/09/12 12:39:44;;;;;;;0.20;0.05;;;27.40;46.10;;;;;;4969562;28;20047;-49
2022/09/12 12:43:03;;;;;;;0.00;0.00;;;27.50;46.10;;;;;;4964452;28;20444;-54
2022/09/12 12:46:09;;;;;;;0.10;0.08;;;27.50;46.60;;;;;;4961469;28;20165;-55
2022/09/12 12:49:11;;;;;;;0.10;0.00;;;27.50;46.00;;;;;;4890036;29;20048;-58
2022/09/12 12:52:00;;;;;;;0.77;0.10;;;27.60;47.10;;;;;;4797335;29;20066;-57
2022/09/12 12:54:56;;;;;;;0.10;0.10;;;27.60;48.10;;;;;;4800136;29;20057;-52
2022/09/12 12:57:48;;;;;;;0.00;0.00;;;27.70;48.20;;;;;;4823234;29;20054;-48
2022/09/12 13:00:32;;;;;;;0.10;0.00;;;27.80;48.30;;;;;;4811682;29;20508;-51
2022/09/12 13:03:10;;;;;;;1.05;0.05;;;27.90;48.20;;;;;;4810580;29;20054;-52
2022/09/12 13:05:43;;;;;;;0.73;0.10;;;28.00;48.20;;;;;;4819504;29;20050;-55
2022/09/12 13:08:23;;;;;;;1.40;0.10;;;28.10;48.20;;;;;;4814990;29;20046;-52
2022/09/12 13:10:51;;;;;;;0.10;0.10;;;28.20;47.60;;;;;;4857415;29;20633;-51
2022/09/12 13:13:25;;;;;;;0.70;0.00;;;28.30;47.60;;;;;;4875766;29;20056;-50
2022/09/12 13:15:53;;;;;;;1.58;0.25;;;28.40;47.40;;;;;;4872363;29;20081;-55